METAR és
SPECI
METAR LHBP 061730Z 25006KT CAVOK 34/12 Q1016 NOSIG=
METAR LHBP 061700Z 24004KT CAVOK 34/11 Q1016 NOSIG=
METAR LHBP 061630Z 25007KT CAVOK 34/10 Q1016 NOSIG=
METAR LHBP 061600Z 26008KT 230V300 CAVOK 35/10 Q1016 NOSIG=
METAR LHBP 061530Z 25006KT 200V290 CAVOK 34/13 Q1016 NOSIG=
METAR LHBP 061500Z 20007KT 160V260 CAVOK 35/12 Q1016 NOSIG=
TAF
TAF LHBP 061700Z 0618/0718 23005KT CAVOK TEMPO 0618/0624 32009KT BECMG 0700/0702 36007KT BECMG 0703/0705 08007KT BECMG 0707/0709 VRB03KT BECMG 0710/0712 24007KT=
GAMET
FAHU41 LHBM 061100
LHCC GAMET VALID 061200/061800 LHBP-
BUDAPEST FIR BLW FL100
SECN I
SIGWX: 12/18 ISOL TS NW OF LINE N4744 E01820 - N4625 E01643
15/18 ISOL TS N OF N4800
SIG CLD: 12/18 ISOL TCU CB 5000-6000/XXX FT AGL NW OF LINE
N4744 E01820 - N4625 E01643
15/18 ISOL TCU CB 5000-6000/XXX FT AGL N OF N4800
TURB: MOD SFC/6000 FT AMSL NW OF LINE N4641 E01625 - N4745 E01804
SIGMETS APPLICABLE: NIL=
OMSZ: 2015. július 6. 12:46 (10:46  UTC)
[FAHU41]
AIRMET
Nincs érvényes távirat! 
WAHU41 LHBM 231400
LHCC AIRMET 01 VALID 231400/231600 LHBP-
LHCC BUDAPEST FIR MOD TURB OBS OVER BUDAPEST TMA BTN
4000/9500 FT AMSL AT 1342Z BY A330 WKN STNR=
OMSZ: 2015. június 23. 16:12 (14:12  UTC)
[WAHU41]
SIGMET
Nincs érvényes távirat! 
WSHU31 LHBM 292030
LHCC SIGMET 03 VALID 292030/292130 LHBP-
LHCC BUDAPEST FIR EMBD TS OBS E OF E02020 AND S OF N4730 TOP
FL270 MOV E WKN=
OMSZ: 2015. június 29. 22:26 (20:26  UTC)
[WSHU31]
SIGMET
Vulkáni hamufelhő
Nincs érvényes távirat! 
WVHU31 LHBM 271515 CCA
LHCC SIGMET 03 VALID 271515/271800 LHBP-
LHCC BUDAPEST FIR EXERCISE VOLCEX12/01
CNL VA SIGMET 02 271200/271800
EXERCISE EXERCISE EXERCISE VOLCEX12/01=
OMSZ: 2015. április 14. 15:15 (13:15  UTC)
[WVHU31]